Aviation Digital Data Service (ADDS)

Output produced by METARs form (1631 UTC 28 August 2016)
found at http://aviationweather.gov/adds/metars/
 
KBTV 281407Z 2814/2912 18012G20KT P6SM FEW050 SCT090 BKN150 
     FM281800 18010G20KT P6SM VCSH BKN050 
     TEMPO 2820/2824 3SM SHRA BR BKN025 
     FM290100 20008KT P6SM BKN050